Time;durP1;ratioP1;P1;durP2;ratioP2;P2;SDS_P1;SDS_P2;PMS_P1;PMS_P2;Temp;Humidity;BMP_temperature;BMP_pressure;BME280_temperature;BME280_humidity;BME280_pressure;Samples;Min_cycle;Max_cycle;Signal;HPM_P1;HPM_P2
2021/03/18 04:57:35;;;;;;;37.67;24.53;;;2.10;99.90;;;;;;6050958;22;3966400;-85
2021/03/18 05:04:05;;;;;;;33.63;22.20;;;2.20;99.90;;;;;;5928091;23;20422;-85
2021/03/18 05:06:34;;;;;;;35.63;23.00;;;2.20;99.90;;;;;;6191875;23;20483;-85
2021/03/18 05:09:02;;;;;;;38.50;23.17;;;2.20;99.90;;;;;;6190960;23;20435;-85
2021/03/18 05:11:32;;;;;;;38.97;22.37;;;2.20;99.90;;;;;;6190987;23;20486;-85
2021/03/18 05:33:44;;;;;;;;;;;;;;;;;;;;;
2021/03/18 05:44:07;;;;;;;;;;;;;;;;;;;;;
2021/03/18 06:13:22;;;;;;;31.10;18.73;;;2.40;99.90;;;;;;6159605;23;20419;-85
2021/03/18 06:34:51;;;;;;;29.90;18.80;;;2.50;99.90;;;;;;6037629;23;20420;-86
2021/03/18 06:37:31;;;;;;;36.90;19.00;;;2.60;99.90;;;;;;6087986;23;20451;-86
2021/03/18 06:40:12;;;;;;;31.23;18.37;;;2.60;99.90;;;;;;6106179;23;20441;-86
2021/03/18 07:08:23;;;;;;;31.53;18.87;;;3.10;99.90;;;;;;6002606;23;20467;-84
2021/03/18 07:14:52;;;;;;;36.30;21.93;;;3.20;99.90;;;;;;6149717;23;20423;-84
2021/03/18 07:17:30;;;;;;;36.70;21.67;;;3.30;99.90;;;;;;6192008;23;20415;-84
2021/03/18 07:25:17;;;;;;;36.00;19.37;;;3.50;99.90;;;;;;6020469;23;20421;-84
2021/03/18 07:28:40;;;;;;;32.57;20.10;;;3.70;99.90;;;;;;6022621;23;20439;-84
2021/03/18 07:53:07;;;;;;;26.10;17.97;;;4.40;99.90;;;;;;5983375;23;20417;-84
2021/03/18 07:56:46;;;;;;;32.17;20.70;;;4.30;99.90;;;;;;6087167;23;20446;-84
2021/03/18 07:59:14;;;;;;;26.90;19.33;;;4.40;99.90;;;;;;6184205;23;20435;-85
2021/03/18 08:02:27;;;;;;;25.53;17.70;;;4.30;99.90;;;;;;6189170;23;20930;-85
2021/03/18 08:05:31;;;;;;;27.20;19.23;;;4.40;99.90;;;;;;6192776;23;20408;-85
2021/03/18 08:11:53;;;;;;;25.10;17.97;;;4.40;99.90;;;;;;6021647;23;20430;-85
2021/03/18 08:15:29;;;;;;;21.73;16.60;;;4.40;99.90;;;;;;6146075;23;20420;-85
2021/03/18 08:22:14;;;;;;;25.27;18.17;;;4.50;99.90;;;;;;6152693;23;20502;-85
2021/03/18 08:28:36;;;;;;;22.50;16.80;;;4.50;99.90;;;;;;6077791;23;20442;-84
2021/03/18 08:31:04;;;;;;;24.20;17.60;;;4.60;99.90;;;;;;6078085;23;20920;-84
2021/03/18 08:33:36;;;;;;;22.97;18.53;;;4.60;99.90;;;;;;6078203;23;20428;-84
2021/03/18 08:36:55;;;;;;;24.20;17.50;;;4.80;99.90;;;;;;6095859;23;20410;-84
2021/03/18 08:53:36;;;;;;;20.30;15.80;;;5.00;99.90;;;;;;5820211;24;20485;-84
2021/03/18 08:56:42;;;;;;;23.70;17.80;;;5.10;99.90;;;;;;5937555;24;20509;-84
2021/03/18 09:11:40;;;;;;;17.43;14.50;;;5.50;99.90;;;;;;6126857;23;20416;-84
2021/03/18 09:15:21;;;;;;;;;;;;;;;;;;;;;
2021/03/18 09:23:22;;;;;;;;;;;;;;;;;;;;;
2021/03/18 09:26:17;;;;;;;12.23;10.60;;;5.90;99.90;;;;;;6094871;23;20444;-84
2021/03/18 09:28:51;;;;;;;11.20;9.90;;;6.00;99.90;;;;;;6199998;23;20947;-84
2021/03/18 09:36:16;;;;;;;;;;;;;;;;;;;;;
2021/03/18 09:47:03;;;;;;;12.07;10.47;;;6.80;99.90;;;;;;5910729;24;20204;-85
2021/03/18 09:55:01;;;;;;;;;;;;;;;;;;;;;
2021/03/18 11:13:06;;;;;;;6.33;4.30;;;7.50;99.90;;;;;;6266550;23;20445;-93
2021/03/18 11:16:01;;;;;;;4.77;4.20;;;7.60;99.90;;;;;;6243366;23;20793;-93
2021/03/18 11:36:37;;;;;;;;;;;;;;;;;;;;;
2021/03/18 11:51:52;;;;;;;;;;;;;;;;;;;;;
2021/03/18 11:54:23;;;;;;;3.65;3.15;;;8.50;99.90;;;;;;6124724;23;20448;-87
2021/03/18 11:57:10;;;;;;;;;;;;;;;;;;;;;
2021/03/18 12:08:27;;;;;;;3.90;3.13;;;8.90;99.90;;;;;;5993307;23;20427;-87
2021/03/18 12:11:22;;;;;;;;;;;;;;;;;;;;;
2021/03/18 13:38:14;;;;;;;7.60;6.30;;;7.50;99.90;;;;;;5912973;24;20422;-87
2021/03/18 13:44:42;;;;;;;6.77;5.27;;;7.60;99.90;;;;;;5761500;24;20497;-87
2021/03/18 13:47:15;;;;;;;4.73;3.23;;;7.60;99.90;;;;;;5884682;24;20444;-87
2021/03/18 13:50:27;;;;;;;6.05;3.30;;;7.60;99.90;;;;;;6058181;23;20419;-87
2021/03/18 13:53:45;;;;;;;;;;;;;;;;;;;;;
2021/03/18 14:10:38;;;;;;;;;;;;;;;;;;;;;
2021/03/18 14:14:23;;;;;;;6.07;4.00;;;7.60;99.90;;;;;;5907126;24;20481;-86
2021/03/18 14:34:52;;;;;;;6.20;3.33;;;7.30;99.90;;;;;;5962258;24;20481;-86
2021/03/18 14:44:02;;;;;;;6.13;3.17;;;7.30;99.90;;;;;;5930476;23;20421;-86
2021/03/18 14:51:04;;;;;;;3.73;2.67;;;7.20;99.90;;;;;;6044995;23;20495;-86
2021/03/18 15:30:48;;;;;;;;;;;;;;;;;;;;;
2021/03/18 15:33:34;;;;;;;4.47;3.50;;;7.20;99.90;;;;;;5847352;24;20759;-87
2021/03/18 15:36:22;;;;;;;3.60;3.30;;;7.10;99.90;;;;;;5956446;23;20419;-87
2021/03/18 15:40:13;;;;;;;;;;;;;;;;;;;;;
2021/03/18 15:47:22;;;;;;;4.68;3.50;;;7.00;99.90;;;;;;6080511;23;20422;-87
2021/03/18 15:57:58;;;;;;;;;;;;;;;;;;;;;
2021/03/18 16:08:45;;;;;;;3.13;2.83;;;6.90;99.90;;;;;;5909564;24;20970;-87
2021/03/18 16:25:55;;;;;;;4.77;3.80;;;6.70;99.90;;;;;;5977014;24;20434;-88
2021/03/18 16:40:00;;;;;;;4.57;4.17;;;6.60;99.90;;;;;;6000016;23;20441;-87
2021/03/18 16:43:04;;;;;;;;;;;;;;;;;;;;;
2021/03/18 16:49:09;;;;;;;8.43;4.60;;;6.50;99.90;;;;;;5937666;24;20444;-86
2021/03/18 16:51:58;;;;;;;5.07;4.40;;;6.50;99.90;;;;;;5996728;23;20415;-86
2021/03/18 16:54:25;;;;;;;3.93;3.53;;;6.50;99.90;;;;;;6056796;23;20419;-86
2021/03/18 16:56:54;;;;;;;5.63;4.40;;;6.50;99.90;;;;;;6095879;23;20404;-88
2021/03/18 16:59:40;;;;;;;;;;;;;;;;;;;;;
2021/03/18 17:02:44;;;;;;;4.10;3.20;;;6.50;99.90;;;;;;6051278;23;20530;-86
2021/03/18 17:05:24;;;;;;;4.57;4.07;;;6.50;99.90;;;;;;6105768;23;20460;-87
2021/03/18 17:33:29;;;;;;;;;;;;;;;;;;;;;
2021/03/18 17:36:02;;;;;;;5.23;4.30;;;6.20;99.90;;;;;;5942617;23;20834;-87
2021/03/18 17:38:32;;;;;;;5.23;3.57;;;6.20;99.90;;;;;;6218200;23;20460;-86
2021/03/18 17:41:00;;;;;;;3.70;3.40;;;6.10;99.90;;;;;;6205372;23;20414;-87
2021/03/18 17:43:29;;;;;;;4.10;3.70;;;6.10;99.90;;;;;;6204835;23;20442;-87
2021/03/18 17:46:02;;;;;;;7.07;4.75;;;6.10;99.90;;;;;;6204931;23;20405;-87
2021/03/18 17:48:33;;;;;;;6.10;5.17;;;6.10;99.90;;;;;;6204415;23;20439;-87
2021/03/18 17:51:08;;;;;;;6.00;5.40;;;6.10;99.90;;;;;;6203610;23;20430;-87
2021/03/18 17:53:48;;;;;;;5.10;4.60;;;6.10;99.90;;;;;;6203979;23;20419;-87
2021/03/18 17:56:20;;;;;;;5.47;4.87;;;6.00;99.90;;;;;;6204253;23;20942;-87
2021/03/18 17:58:51;;;;;;;4.50;4.10;;;6.20;99.90;;;;;;6204814;23;20441;-87
2021/03/18 18:04:46;;;;;;;4.57;3.43;;;6.10;99.90;;;;;;6201596;23;20414;-86
2021/03/18 18:07:15;;;;;;;4.67;3.77;;;6.00;99.90;;;;;;6202870;23;20422;-87
2021/03/18 18:09:43;;;;;;;4.13;3.70;;;6.00;99.90;;;;;;6240175;23;20419;-86
2021/03/18 18:12:10;;;;;;;3.27;2.97;;;5.90;99.90;;;;;;6202971;23;20426;-85
2021/03/18 18:14:41;;;;;;;3.90;3.50;;;5.90;99.90;;;;;;6203285;23;20476;-85
2021/03/18 18:17:09;;;;;;;4.67;3.30;;;5.80;99.90;;;;;;6201485;23;20419;-85
2021/03/18 18:19:37;;;;;;;6.20;4.00;;;5.80;99.90;;;;;;6199016;23;20434;-85
2021/03/18 18:22:07;;;;;;;4.03;3.53;;;5.80;99.90;;;;;;6200663;23;20573;-85
2021/03/18 18:24:36;;;;;;;6.70;3.90;;;5.80;99.90;;;;;;6200253;23;20399;-85
2021/03/18 18:27:05;;;;;;;5.17;3.77;;;5.70;99.90;;;;;;6199712;23;20458;-85
2021/03/18 18:29:34;;;;;;;3.53;3.23;;;5.70;99.90;;;;;;6199036;23;20438;-85
2021/03/18 18:32:03;;;;;;;4.87;3.60;;;5.70;99.90;;;;;;6199865;23;20411;-85
2021/03/18 18:34:34;;;;;;;4.93;3.53;;;5.70;99.90;;;;;;6197956;23;20464;-85
2021/03/18 18:37:02;;;;;;;4.77;3.83;;;5.60;99.90;;;;;;6202469;23;20422;-85
2021/03/18 18:39:31;;;;;;;6.63;4.70;;;5.60;99.90;;;;;;6201847;23;20426;-85
2021/03/18 18:42:01;;;;;;;4.40;4.00;;;5.50;99.90;;;;;;6203573;23;20441;-85
2021/03/18 18:44:29;;;;;;;7.30;4.50;;;5.50;99.90;;;;;;6203059;23;20421;-85
2021/03/18 18:47:09;;;;;;;5.63;5.03;;;5.50;99.90;;;;;;6203800;23;20405;-85
2021/03/18 18:49:38;;;;;;;5.17;4.63;;;5.40;99.90;;;;;;6203292;23;20466;-85
2021/03/18 18:52:05;;;;;;;7.30;4.67;;;5.40;99.90;;;;;;6203442;23;20487;-85
2021/03/18 18:54:37;;;;;;;5.77;5.17;;;5.40;99.90;;;;;;6203425;23;20489;-85
2021/03/18 18:57:06;;;;;;;7.10;6.40;;;5.30;99.90;;;;;;6204311;23;20423;-85
2021/03/18 18:59:45;;;;;;;7.80;5.90;;;5.30;99.90;;;;;;6202141;23;20441;-85
2021/03/18 19:02:13;;;;;;;7.60;6.40;;;5.20;99.90;;;;;;6202556;23;20443;-85
2021/03/18 19:04:44;;;;;;;5.47;4.97;;;5.20;99.90;;;;;;6203172;23;20406;-85
2021/03/18 19:07:13;;;;;;;5.60;5.03;;;5.20;99.90;;;;;;6202246;23;20490;-87
2021/03/18 19:09:40;;;;;;;6.33;5.73;;;5.10;99.90;;;;;;6240385;23;20411;-87
2021/03/18 19:12:10;;;;;;;5.30;4.80;;;5.10;99.90;;;;;;6203906;23;20421;-87
2021/03/18 19:14:38;;;;;;;6.83;5.80;;;5.10;99.90;;;;;;6204331;23;20802;-86
2021/03/18 19:17:05;;;;;;;7.70;4.97;;;5.00;99.90;;;;;;6204709;23;20422;-86
2021/03/18 19:19:35;;;;;;;7.87;6.20;;;5.00;99.90;;;;;;6204403;23;20492;-86
2021/03/18 19:22:03;;;;;;;7.10;6.33;;;5.00;99.90;;;;;;6203624;23;20427;-86
2021/03/18 19:24:31;;;;;;;7.13;4.83;;;4.90;99.90;;;;;;6204361;23;20473;-86
2021/03/18 19:27:00;;;;;;;5.40;3.93;;;4.90;99.90;;;;;;6239423;23;20379;-86
2021/03/18 19:29:33;;;;;;;7.27;4.30;;;4.80;99.90;;;;;;6198892;23;20458;-85
2021/03/18 19:32:02;;;;;;;5.30;3.80;;;4.80;99.90;;;;;;6197570;23;20414;-86
2021/03/18 19:34:33;;;;;;;5.43;4.50;;;4.80;99.90;;;;;;6202554;23;20429;-86
2021/03/18 19:37:09;;;;;;;7.73;4.63;;;4.70;99.90;;;;;;6203752;23;20417;-86
2021/03/18 19:39:39;;;;;;;8.33;6.30;;;4.70;99.90;;;;;;6203586;23;20452;-86
2021/03/18 19:42:08;;;;;;;7.00;5.10;;;4.60;99.90;;;;;;6202886;23;20477;-86
2021/03/18 19:44:40;;;;;;;7.03;5.90;;;4.60;99.90;;;;;;6203070;23;20410;-86
2021/03/18 19:47:08;;;;;;;6.53;5.30;;;4.60;99.90;;;;;;6203335;23;20473;-86
2021/03/18 19:49:37;;;;;;;6.87;5.47;;;4.50;99.90;;;;;;6202976;23;20466;-87
2021/03/18 19:52:04;;;;;;;7.77;6.20;;;4.50;99.90;;;;;;6203313;23;20411;-86
2021/03/18 19:54:35;;;;;;;7.63;6.70;;;4.50;99.90;;;;;;6203663;23;20750;-86
2021/03/18 19:57:03;;;;;;;6.40;5.70;;;4.40;99.90;;;;;;6203393;23;20414;-86
2021/03/18 19:59:30;;;;;;;5.63;4.60;;;4.40;99.90;;;;;;6203337;23;20437;-86
2021/03/18 20:02:00;;;;;;;5.13;4.10;;;4.40;99.90;;;;;;6239455;23;20480;-86
2021/03/18 20:04:29;;;;;;;4.97;3.87;;;4.30;99.90;;;;;;6203681;23;20410;-86
2021/03/18 20:06:57;;;;;;;5.07;4.10;;;4.30;99.90;;;;;;6203768;23;20403;-86
2021/03/18 20:09:24;;;;;;;4.37;3.80;;;4.30;99.90;;;;;;6203991;23;20438;-86
2021/03/18 20:11:54;;;;;;;7.50;4.20;;;4.20;99.90;;;;;;6204727;23;20403;-86
2021/03/18 20:14:21;;;;;;;5.27;4.20;;;4.20;99.90;;;;;;6203577;23;20441;-86
2021/03/18 20:16:48;;;;;;;8.60;4.63;;;4.20;99.90;;;;;;6203628;23;20505;-86
2021/03/18 20:19:17;;;;;;;5.37;4.87;;;4.10;99.90;;;;;;6203150;23;20434;-86
2021/03/18 20:21:49;;;;;;;6.27;5.03;;;4.10;99.90;;;;;;6202951;23;20442;-86
2021/03/18 20:24:18;;;;;;;7.40;5.40;;;4.10;99.90;;;;;;6203330;23;20438;-86
2021/03/18 20:26:45;;;;;;;7.17;5.17;;;4.00;99.90;;;;;;6203024;23;20423;-85
2021/03/18 20:29:13;;;;;;;5.20;4.70;;;4.00;99.90;;;;;;6201989;23;21020;-86
2021/03/18 20:31:41;;;;;;;8.60;6.07;;;4.00;99.90;;;;;;6202429;23;20415;-86
2021/03/18 20:34:09;;;;;;;10.20;8.07;;;4.00;99.90;;;;;;6202537;23;20407;-86
2021/03/18 20:36:38;;;;;;;8.33;6.93;;;4.00;99.90;;;;;;6202015;23;20425;-86
2021/03/18 20:39:08;;;;;;;9.80;7.40;;;3.90;99.90;;;;;;6202604;23;20462;-87
2021/03/18 20:41:36;;;;;;;10.03;6.57;;;3.90;99.90;;;;;;6202203;23;20431;-85
2021/03/18 20:44:07;;;;;;;8.77;6.37;;;3.80;99.90;;;;;;6202435;23;20411;-86
2021/03/18 20:46:38;;;;;;;8.50;6.63;;;3.80;99.90;;;;;;6239071;23;20402;-86
2021/03/18 20:49:06;;;;;;;9.03;6.63;;;3.80;99.90;;;;;;6201775;23;20438;-86
2021/03/18 20:51:36;;;;;;;9.03;7.60;;;3.80;99.90;;;;;;6202376;23;20407;-86
2021/03/18 20:54:05;;;;;;;7.77;6.97;;;3.70;99.90;;;;;;6202416;23;20425;-86
2021/03/18 20:56:33;;;;;;;8.47;7.67;;;3.70;99.90;;;;;;6202306;23;20442;-87
2021/03/18 20:59:06;;;;;;;6.87;6.20;;;3.70;99.90;;;;;;6202439;23;20438;-86
2021/03/18 21:01:35;;;;;;;7.83;7.10;;;3.60;99.90;;;;;;6201453;23;20501;-86
2021/03/18 21:04:10;;;;;;;8.07;6.40;;;3.60;99.90;;;;;;6237774;23;20510;-86
2021/03/18 21:07:13;;;;;;;9.00;8.10;;;3.60;99.90;;;;;;6201371;23;20410;-86
2021/03/18 21:10:07;;;;;;;10.53;9.37;;;3.50;99.90;;;;;;6189867;23;20469;-86
2021/03/18 21:12:36;;;;;;;9.50;8.50;;;3.50;99.90;;;;;;6201554;23;20399;-86
2021/03/18 21:15:21;;;;;;;10.10;9.10;;;3.40;99.90;;;;;;6201516;23;20465;-86
2021/03/18 21:18:08;;;;;;;8.43;7.57;;;3.40;99.90;;;;;;6201789;23;20438;-86
2021/03/18 21:20:42;;;;;;;9.53;7.50;;;3.30;99.90;;;;;;6201488;23;20454;-86
2021/03/18 21:23:10;;;;;;;8.20;6.87;;;3.40;99.90;;;;;;6201483;23;20485;-85
2021/03/18 21:25:41;;;;;;;9.70;8.70;;;3.30;99.90;;;;;;6200929;23;20399;-86
2021/03/18 21:28:13;;;;;;;7.77;7.07;;;3.30;99.90;;;;;;6200832;23;20431;-87
2021/03/18 21:30:45;;;;;;;8.90;7.33;;;3.30;99.90;;;;;;6201860;23;20418;-85
2021/03/18 21:33:30;;;;;;;9.10;7.03;;;3.20;99.90;;;;;;6200551;23;20410;-87
2021/03/18 21:36:01;;;;;;;10.47;7.43;;;3.20;99.90;;;;;;6200781;23;20414;-86
2021/03/18 21:38:30;;;;;;;10.27;8.30;;;3.10;99.90;;;;;;6201172;23;20470;-85
2021/03/18 21:41:00;;;;;;;8.40;7.60;;;3.10;99.90;;;;;;6201327;23;20414;-85
2021/03/18 21:43:29;;;;;;;8.10;7.23;;;3.00;99.90;;;;;;6201283;23;20433;-85
2021/03/18 21:46:00;;;;;;;8.50;7.60;;;3.00;99.90;;;;;;6200968;23;20415;-85
2021/03/18 21:48:37;;;;;;;8.47;7.53;;;3.00;99.90;;;;;;6200653;23;20442;-86
2021/03/18 21:51:05;;;;;;;8.53;6.63;;;2.90;99.90;;;;;;6200954;23;20407;-86
2021/03/18 21:53:33;;;;;;;9.33;7.40;;;2.90;99.90;;;;;;6201847;23;20415;-86
2021/03/18 21:56:04;;;;;;;9.30;7.70;;;2.90;99.90;;;;;;6201568;23;20430;-86
2021/03/18 21:58:33;;;;;;;9.20;8.20;;;2.80;99.90;;;;;;6201379;23;20521;-86
2021/03/18 22:01:01;;;;;;;12.27;9.37;;;2.80;99.90;;;;;;6201513;23;20407;-86
2021/03/18 22:03:32;;;;;;;8.63;7.60;;;2.70;99.90;;;;;;6236153;23;20442;-86
2021/03/18 22:06:06;;;;;;;13.37;11.97;;;2.70;99.90;;;;;;6192289;23;20403;-85
2021/03/18 22:08:34;;;;;;;8.60;7.70;;;2.60;99.90;;;;;;6199648;23;20426;-85
2021/03/18 22:11:06;;;;;;;9.63;7.57;;;2.60;99.90;;;;;;6199380;23;20421;-85
2021/03/18 22:13:34;;;;;;;10.47;8.33;;;2.60;99.90;;;;;;6199674;23;20411;-86
2021/03/18 22:16:04;;;;;;;8.83;8.03;;;2.50;99.90;;;;;;6199516;23;20497;-86
2021/03/18 22:18:52;;;;;;;;;;;;;;;;;;;;;
2021/03/18 22:21:39;;;;;;;13.80;10.30;;;2.90;99.90;;;;;;6199119;23;20501;-86
2021/03/18 22:24:32;;;;;;;11.67;10.33;;;2.40;99.90;;;;;;6236302;23;20387;-86
2021/03/18 22:27:05;;;;;;;10.93;9.73;;;2.50;99.90;;;;;;6199728;23;20483;-86
2021/03/18 22:29:39;;;;;;;9.13;7.97;;;2.30;99.90;;;;;;6200017;23;20445;-86
2021/03/18 22:32:08;;;;;;;10.60;9.50;;;2.30;99.90;;;;;;6199288;23;20399;-86
2021/03/18 22:34:45;;;;;;;11.77;7.23;;;2.30;99.90;;;;;;6198812;23;20441;-86
2021/03/18 22:37:37;;;;;;;8.70;7.80;;;2.20;99.90;;;;;;6199241;23;20418;-86
2021/03/18 22:40:39;;;;;;;8.37;6.70;;;2.20;99.90;;;;;;6198315;23;20494;-85
2021/03/18 22:43:22;;;;;;;7.50;6.80;;;2.20;99.90;;;;;;6198670;23;20434;-85
2021/03/18 22:45:53;;;;;;;9.13;7.13;;;2.10;99.90;;;;;;6199196;23;20477;-85
2021/03/18 22:48:44;;;;;;;6.83;5.13;;;2.10;99.90;;;;;;6235877;23;20474;-85
2021/03/18 22:51:21;;;;;;;6.47;5.67;;;2.10;99.90;;;;;;6199047;23;20406;-86
2021/03/18 22:53:53;;;;;;;7.03;5.83;;;2.10;99.90;;;;;;6199008;23;20411;-86
2021/03/18 22:56:27;;;;;;;7.55;6.00;;;2.00;99.90;;;;;;6198670;23;20416;-86
2021/03/18 22:58:59;;;;;;;6.63;6.00;;;2.10;99.90;;;;;;6198188;23;20197;-86
2021/03/18 23:01:27;;;;;;;6.57;5.83;;;2.10;99.90;;;;;;6198377;23;20434;-86
2021/03/18 23:03:59;;;;;;;6.50;5.73;;;2.10;99.90;;;;;;6199303;23;20427;-86
2021/03/18 23:06:30;;;;;;;6.07;5.47;;;2.00;99.90;;;;;;6199837;23;20423;-86
2021/03/18 23:09:15;;;;;;;8.67;6.17;;;1.90;99.90;;;;;;6198582;23;20521;-86
2021/03/18 23:11:47;;;;;;;7.27;6.57;;;1.90;99.90;;;;;;6198609;23;20418;-86
2021/03/18 23:14:16;;;;;;;7.07;6.37;;;1.80;99.90;;;;;;6198697;23;20415;-86
2021/03/18 23:17:03;;;;;;;9.03;6.53;;;1.80;99.90;;;;;;6198754;23;20406;-86
2021/03/18 23:19:53;;;;;;;7.87;6.70;;;1.80;99.90;;;;;;6198482;23;20446;-87
2021/03/18 23:22:23;;;;;;;7.53;5.90;;;1.70;99.90;;;;;;6203941;23;20426;-86
2021/03/18 23:24:56;;;;;;;6.27;5.57;;;1.70;99.90;;;;;;6208290;23;20417;-85
2021/03/18 23:27:25;;;;;;;6.10;5.40;;;1.60;99.90;;;;;;6208278;23;20413;-84
2021/03/18 23:29:57;;;;;;;7.07;5.73;;;1.60;99.90;;;;;;6202164;23;20437;-86
2021/03/18 23:32:31;;;;;;;5.80;5.20;;;1.60;99.90;;;;;;6200930;23;20409;-86
2021/03/18 23:34:59;;;;;;;5.80;5.20;;;1.60;99.90;;;;;;6200574;23;20741;-86
2021/03/18 23:37:27;;;;;;;8.80;7.40;;;1.50;99.90;;;;;;6200090;23;20414;-86
2021/03/18 23:39:57;;;;;;;7.40;6.60;;;1.50;99.90;;;;;;6201451;23;20418;-87
2021/03/18 23:42:26;;;;;;;8.07;7.20;;;1.40;99.90;;;;;;6200601;23;20434;-86
2021/03/18 23:45:06;;;;;;;9.97;7.00;;;1.40;99.90;;;;;;6200520;23;20403;-86
2021/03/18 23:47:38;;;;;;;6.87;6.00;;;1.40;99.90;;;;;;6199318;23;20538;-86
2021/03/18 23:50:22;;;;;;;7.80;6.40;;;1.40;99.90;;;;;;6237006;23;20426;-86
2021/03/18 23:53:08;;;;;;;7.93;6.73;;;1.30;99.90;;;;;;6200373;23;20413;-86
2021/03/18 23:55:58;;;;;;;6.80;6.00;;;1.30;99.90;;;;;;6237061;23;20442;-86
2021/03/18 23:58:32;;;;;;;6.40;5.67;;;1.30;99.90;;;;;;6198817;23;20525;-86
